Time;durP1;ratioP1;P1;durP2;ratioP2;P2;SDS_P1;SDS_P2;PMS_P1;PMS_P2;Temp;Humidity;BMP_temperature;BMP_pressure;BME280_temperature;BME280_humidity;BME280_pressure;Samples;Min_cycle;Max_cycle;Signal;HPM_P1;HPM_P2
2020/12/26 00:00:26;;;;;;;17.60;12.95;;;;;;;0.97;80.74;99141.09;119034;1151;65229;-84
2020/12/26 00:03:00;;;;;;;19.30;12.75;;;;;;;0.97;80.75;99151.59;118987;1151;65257;-84
2020/12/26 00:05:26;;;;;;;18.95;12.60;;;;;;;0.95;80.95;99145.55;118959;1151;65069;-84
2020/12/26 00:07:53;;;;;;;17.03;11.90;;;;;;;0.93;80.63;99143.86;119066;1151;65123;-83
2020/12/26 00:10:20;;;;;;;19.63;13.20;;;;;;;0.91;80.70;99146.52;119053;1151;65108;-83
2020/12/26 00:12:48;;;;;;;17.33;11.27;;;;;;;0.91;80.84;99135.16;118996;1151;65246;-83
2020/12/26 00:15:15;;;;;;;18.93;11.87;;;;;;;0.88;81.09;99144.83;119071;1151;65129;-83
2020/12/26 00:17:41;;;;;;;20.17;12.50;;;;;;;0.86;80.81;99143.14;119023;1151;65153;-83
2020/12/26 00:20:08;;;;;;;16.05;9.90;;;;;;;0.85;81.29;99144.05;119083;1151;65127;-83
2020/12/26 00:22:35;;;;;;;14.45;10.00;;;;;;;0.85;80.99;99144.05;118973;1151;65105;-85
2020/12/26 00:25:01;;;;;;;15.43;10.93;;;;;;;0.84;81.18;99147.56;118577;1151;65358;-84
2020/12/26 00:27:28;;;;;;;17.77;10.30;;;;;;;0.84;81.31;99158.94;119034;1151;65105;-84
2020/12/26 00:29:54;;;;;;;16.17;11.10;;;;;;;0.81;81.44;99150.27;118992;1151;65236;-84
2020/12/26 00:32:22;;;;;;;19.70;12.47;;;;;;;0.78;80.87;99153.83;119008;1151;65133;-84
2020/12/26 00:34:48;;;;;;;17.77;13.00;;;;;;;0.76;81.21;99145.13;119049;1151;65130;-84
2020/12/26 00:37:18;;;;;;;22.70;13.60;;;;;;;0.73;81.61;99150.45;119008;1151;65239;-84
2020/12/26 00:39:44;;;;;;;17.00;13.03;;;;;;;0.72;81.76;99153.98;119018;1151;65102;-83
2020/12/26 00:42:11;;;;;;;21.23;14.93;;;;;;;0.72;81.54;99166.25;119095;1151;65127;-85
2020/12/26 00:44:38;;;;;;;20.83;13.70;;;;;;;0.75;81.78;99163.55;119140;1151;65094;-82
2020/12/26 00:47:04;;;;;;;20.53;14.70;;;;;;;0.74;81.86;99174.91;119111;1151;65147;-85
2020/12/26 00:49:31;;;;;;;22.77;14.90;;;;;;;0.74;81.63;99172.29;119097;1151;65507;-85
2020/12/26 00:51:57;;;;;;;21.87;14.47;;;;;;;0.72;81.50;99176.73;119116;1151;65586;-82
2020/12/26 00:54:24;;;;;;;19.65;13.75;;;;;;;0.70;81.82;99174.14;119081;1151;65129;-82
2020/12/26 00:56:50;;;;;;;16.10;12.45;;;;;;;0.68;82.00;99175.92;119117;1151;65126;-83
2020/12/26 00:59:16;;;;;;;16.20;12.47;;;;;;;0.65;82.09;99176.01;119068;1151;65133;-82
2020/12/26 01:01:43;;;;;;;20.12;13.40;;;;;;;0.65;82.27;99176.01;119027;1151;65178;-84
2020/12/26 01:04:09;;;;;;;19.60;13.10;;;;;;;0.63;82.18;99172.55;119029;1151;65204;-84
2020/12/26 01:06:36;;;;;;;25.67;16.60;;;;;;;0.61;82.18;99177.00;119070;1151;65100;-84
2020/12/26 01:09:03;;;;;;;19.00;15.20;;;;;;;0.61;82.22;99174.38;118959;1151;65068;-85
2020/12/26 01:11:29;;;;;;;18.83;14.90;;;;;;;0.61;81.85;99180.47;119068;1151;65076;-84
2020/12/26 01:13:55;;;;;;;19.03;14.60;;;;;;;0.62;82.07;99176.09;119061;1151;65409;-84
2020/12/26 01:16:22;;;;;;;20.75;15.30;;;;;;;0.61;81.67;99182.24;119070;1151;65124;-85
2020/12/26 01:18:48;;;;;;;22.77;15.90;;;;;;;0.60;82.21;99181.35;119017;1151;65182;-83
2020/12/26 01:21:14;;;;;;;23.70;15.90;;;;;;;0.62;82.54;99182.19;119111;1151;65560;-83
2020/12/26 01:23:42;;;;;;;23.53;17.13;;;;;;;0.64;82.49;99182.16;119060;1151;65124;-85
2020/12/26 01:26:09;;;;;;;18.40;14.87;;;;;;;0.65;81.77;99184.73;119069;1151;65114;-83
2020/12/26 01:28:36;;;;;;;17.23;13.73;;;;;;;0.65;81.74;99186.50;118454;1151;65698;-83
2020/12/26 01:31:02;;;;;;;18.57;13.17;;;;;;;0.66;82.37;99183.00;119079;1151;65120;-83
2020/12/26 01:33:28;;;;;;;17.10;12.85;;;;;;;0.69;82.43;99175.05;118673;1151;65117;-83
2020/12/26 01:35:55;;;;;;;17.20;12.00;;;;;;;0.70;82.02;99174.14;118797;1151;65124;-83
2020/12/26 01:38:21;;;;;;;15.50;11.90;;;;;;;0.66;81.97;99172.50;119064;1151;65281;-83
2020/12/26 01:40:51;;;;;;;15.85;12.45;;;;;;;0.65;81.95;99176.01;119035;1151;65132;-83
2020/12/26 01:43:18;;;;;;;15.00;10.80;;;;;;;0.63;81.35;99169.93;119050;1151;65705;-83
2020/12/26 01:45:45;;;;;;;15.83;10.27;;;;;;;0.62;82.04;99162.97;119020;1151;65154;-83
2020/12/26 01:48:17;;;;;;;13.70;9.60;;;;;;;0.62;81.52;99170.84;118958;1151;65114;-83
2020/12/26 01:50:45;;;;;;;15.30;10.73;;;;;;;0.61;82.01;99175.23;119081;1151;65143;-83
2020/12/26 01:53:12;;;;;;;14.40;10.70;;;;;;;0.59;81.94;99174.39;119106;1151;65104;-83
2020/12/26 01:55:41;;;;;;;12.95;10.00;;;;;;;0.60;81.32;99180.50;119093;1151;65082;-85
2020/12/26 01:58:13;;;;;;;16.47;10.17;;;;;;;0.59;81.56;99182.27;119148;1150;65111;-83
2020/12/26 02:00:40;;;;;;;13.57;10.27;;;;;;;0.60;81.55;99181.35;119143;1151;65269;-83
2020/12/26 02:03:07;;;;;;;13.43;9.40;;;;;;;0.59;81.94;99174.39;119031;1151;65224;-85
2020/12/26 02:05:34;;;;;;;12.60;9.77;;;;;;;0.60;81.21;99180.50;119074;1151;65200;-83
2020/12/26 02:08:00;;;;;;;14.73;9.50;;;;;;;0.58;81.38;99175.30;119064;1151;65097;-83
2020/12/26 02:10:27;;;;;;;18.23;11.50;;;;;;;0.58;81.72;99182.28;119085;1151;65223;-84
2020/12/26 02:12:53;;;;;;;12.97;10.73;;;;;;;0.58;81.68;99180.55;119102;1151;65260;-85
2020/12/26 02:15:19;;;;;;;14.10;9.43;;;;;;;0.58;81.35;99182.28;118690;1151;65228;-84
2020/12/26 02:17:46;;;;;;;13.40;9.40;;;;;;;0.53;81.60;99176.31;118487;1151;65139;-84
2020/12/26 02:20:12;;;;;;;12.95;9.25;;;;;;;0.50;81.43;99185.11;119034;1151;65490;-83
2020/12/26 02:22:40;;;;;;;13.40;9.40;;;;;;;0.47;81.21;99186.92;119106;1151;65098;-85
2020/12/26 02:25:06;;;;;;;12.63;8.33;;;;;;;0.45;81.73;99179.12;119100;1151;65308;-84
2020/12/26 02:27:34;;;;;;;10.90;7.63;;;;;;;0.43;81.71;99176.52;119097;1151;65147;-83
2020/12/26 02:30:00;;;;;;;9.70;7.90;;;;;;;0.42;81.58;99185.29;119073;1151;65201;-84
2020/12/26 02:32:27;;;;;;;11.03;7.60;;;;;;;0.44;81.60;99185.23;119117;1151;65474;-84
2020/12/26 02:34:53;;;;;;;12.30;7.55;;;;;;;0.42;81.80;99187.91;119060;1151;65060;-83
2020/12/26 02:37:19;;;;;;;9.33;7.23;;;;;;;0.42;81.35;99184.41;119019;1151;65232;-82
2020/12/26 02:39:46;;;;;;;11.00;7.57;;;;;;;0.42;81.59;99187.02;118679;1151;65298;-82
2020/12/26 02:42:13;;;;;;;8.13;6.67;;;;;;;0.43;81.65;99188.77;118642;1151;65123;-84
2020/12/26 02:44:39;;;;;;;11.33;7.90;;;;;;;0.43;81.60;99188.77;118883;1151;65117;-83
2020/12/26 02:47:06;;;;;;;9.70;7.03;;;;;;;0.41;81.79;99194.03;118850;1151;65570;-83
2020/12/26 02:49:32;;;;;;;9.10;8.05;;;;;;;0.40;81.87;99194.09;119112;1151;65100;-83
2020/12/26 02:51:59;;;;;;;13.33;8.17;;;;;;;0.41;81.89;99191.41;119096;1151;65152;-85
2020/12/26 02:54:25;;;;;;;9.47;7.30;;;;;;;0.41;81.49;99188.79;118618;1151;65098;-84
2020/12/26 02:56:51;;;;;;;11.57;8.25;;;;;;;0.39;81.79;99181.85;118930;1151;65135;-84
2020/12/26 02:59:18;;;;;;;12.90;8.37;;;;;;;0.37;81.71;99189.77;119067;1151;65097;-84
2020/12/26 03:01:44;;;;;;;13.03;8.80;;;;;;;0.38;82.25;99195.88;119079;1151;65149;-84
2020/12/26 03:04:11;;;;;;;11.40;7.90;;;;;;;0.37;81.42;99196.75;119097;1151;65159;-83
2020/12/26 03:06:37;;;;;;;11.60;8.70;;;;;;;0.35;82.32;99190.70;119040;1151;65150;-83
2020/12/26 03:09:03;;;;;;;12.77;8.57;;;;;;;0.34;82.18;99191.58;119061;1151;65127;-83
2020/12/26 03:11:30;;;;;;;12.90;9.97;;;;;;;0.36;82.35;99198.52;119025;1151;65126;-85
2020/12/26 03:13:56;;;;;;;12.93;9.40;;;;;;;0.38;82.03;99195.88;119038;1151;65194;-83
2020/12/26 03:16:22;;;;;;;11.03;9.37;;;;;;;0.37;82.27;99201.99;119040;1151;65129;-83
2020/12/26 03:18:49;;;;;;;11.53;8.97;;;;;;;0.36;82.42;99200.28;119091;1151;65107;-83
2020/12/26 03:21:15;;;;;;;10.03;8.37;;;;;;;0.35;82.32;99212.53;119065;1151;65161;-83
2020/12/26 03:23:42;;;;;;;10.10;8.57;;;;;;;0.37;82.29;99213.37;119150;1151;65220;-83
2020/12/26 03:26:08;;;;;;;11.15;9.10;;;;;;;0.37;82.00;99202.88;118907;1151;65152;-85
2020/12/26 03:28:35;;;;;;;15.03;12.97;;;;;;;0.41;81.74;99206.28;118470;1151;65153;-85
2020/12/26 03:31:03;;;;;;;15.23;12.67;;;;;;;0.39;81.63;99202.83;119030;1151;65146;-84
2020/12/26 03:33:30;;;;;;;13.43;10.10;;;;;;;0.39;81.80;99208.92;118642;1151;65172;-84
2020/12/26 03:35:57;;;;;;;11.97;8.87;;;;;;;0.37;81.90;99218.61;119080;1151;65037;-84
2020/12/26 03:38:23;;;;;;;12.20;9.25;;;;;;;0.36;82.43;99210.77;119078;1151;65383;-84
2020/12/26 03:40:49;;;;;;;12.97;10.93;;;;;;;0.38;82.39;99217.70;118983;1151;65265;-84
2020/12/26 03:43:16;;;;;;;12.60;9.80;;;;;;;0.38;82.21;99216.84;119009;1151;65193;-82
2020/12/26 03:45:42;;;;;;;12.47;9.20;;;;;;;0.36;82.29;99224.73;119039;1151;65497;-85
2020/12/26 03:48:09;;;;;;;12.70;9.10;;;;;;;0.36;81.99;99229.12;119043;1151;65146;-82
2020/12/26 03:50:35;;;;;;;11.97;8.73;;;;;;;0.36;82.15;99235.22;118952;1151;65140;-83
2020/12/26 03:53:01;;;;;;;12.00;9.70;;;;;;;0.35;82.05;99228.27;119094;1151;65144;-83
2020/12/26 03:55:28;;;;;;;11.87;9.57;;;;;;;0.34;82.53;99236.14;119068;1151;65134;-83
2020/12/26 03:57:54;;;;;;;13.97;10.70;;;;;;;0.34;82.33;99246.63;119042;1151;65221;-83
2020/12/26 04:00:20;;;;;;;12.80;10.40;;;;;;;0.34;82.17;99246.63;119079;1151;65062;-83
2020/12/26 04:02:47;;;;;;;13.55;10.70;;;;;;;0.36;82.49;99245.70;119042;1151;65124;-83
2020/12/26 04:05:13;;;;;;;12.00;9.63;;;;;;;0.37;82.44;99242.20;119087;1151;65135;-83
2020/12/26 04:07:40;;;;;;;13.70;10.63;;;;;;;0.37;82.41;99243.94;119068;1151;65114;-83
2020/12/26 04:10:06;;;;;;;12.60;10.17;;;;;;;0.34;82.53;99247.52;119056;1151;65127;-83
2020/12/26 04:12:32;;;;;;;12.93;10.77;;;;;;;0.34;82.58;99244.89;119102;1151;65150;-83
2020/12/26 04:14:59;;;;;;;13.95;11.70;;;;;;;0.35;82.59;99237.89;119095;1151;65095;-83
2020/12/26 04:17:25;;;;;;;12.83;11.47;;;;;;;0.38;82.77;99243.06;118982;1151;65114;-85
2020/12/26 04:19:51;;;;;;;10.90;9.63;;;;;;;0.40;82.67;99243.89;119054;1151;65108;-84
2020/12/26 04:22:18;;;;;;;13.88;11.68;;;;;;;0.39;82.04;99237.77;119121;1150;65175;-84
2020/12/26 04:24:45;;;;;;;13.53;11.60;;;;;;;0.40;82.73;99233.41;119018;1151;65262;-84
2020/12/26 04:27:11;;;;;;;15.57;13.50;;;;;;;0.40;82.46;99243.89;119037;1151;65130;-84
2020/12/26 04:29:37;;;;;;;14.55;11.63;;;;;;;0.37;82.18;99244.83;119005;1151;65246;-83
2020/12/26 04:32:04;;;;;;;13.53;11.03;;;;;;;0.39;82.24;99243.01;119061;1151;65121;-85
2020/12/26 04:34:30;;;;;;;10.63;9.50;;;;;;;0.41;82.60;99243.84;119099;1151;65115;-84
2020/12/26 04:36:57;;;;;;;14.25;10.10;;;;;;;0.44;82.34;99245.53;119089;1151;65243;-83
2020/12/26 04:39:23;;;;;;;12.45;9.80;;;;;;;0.48;82.44;99246.36;119088;1151;65155;-82
2020/12/26 04:41:49;;;;;;;13.72;10.72;;;;;;;0.44;82.98;99243.77;119082;1151;65134;-82
2020/12/26 04:44:16;;;;;;;11.93;10.40;;;;;;;0.44;83.08;99235.05;118997;1151;65281;-82
2020/12/26 04:46:46;;;;;;;11.43;9.03;;;;;;;0.41;82.25;99246.47;119141;1151;65153;-83
2020/12/26 04:49:16;;;;;;;13.62;9.70;;;;;;;0.38;82.81;99246.54;119050;1151;65175;-82
2020/12/26 04:51:42;;;;;;;12.40;9.15;;;;;;;0.36;83.25;99244.84;119070;1151;65172;-84
2020/12/26 04:54:35;;;;;;;13.20;10.30;;;;;;;0.34;82.78;99247.52;119098;1151;65118;-85
2020/12/26 04:57:01;;;;;;;12.67;10.07;;;;;;;0.33;83.35;99251.02;119168;1151;65120;-84
2020/12/26 04:59:28;;;;;;;13.20;10.80;;;;;;;0.28;82.78;99249.39;119119;1151;65097;-83
2020/12/26 05:01:56;;;;;;;12.43;9.97;;;;;;;0.24;83.16;99255.58;119120;1151;65267;-81
2020/12/26 05:04:22;;;;;;;14.33;10.60;;;;;;;0.21;83.21;99260.02;119181;1150;65057;-83
2020/12/26 05:06:51;;;;;;;12.53;11.10;;;;;;;0.19;83.91;99258.32;119135;1151;65173;-83
2020/12/26 05:09:19;;;;;;;14.00;11.15;;;;;;;0.18;83.63;99252.19;119157;1151;65121;-83
2020/12/26 05:11:54;;;;;;;13.87;10.20;;;;;;;0.19;83.70;99259.17;119136;1151;65200;-85
2020/12/26 05:14:22;;;;;;;12.50;10.10;;;;;;;0.14;83.69;99265.41;118940;1151;65573;-85
2020/12/26 05:16:48;;;;;;;14.53;11.60;;;;;;;0.11;84.22;99263.72;118575;1151;65102;-85
2020/12/26 05:19:15;;;;;;;14.05;11.60;;;;;;;0.10;83.63;99269.83;118590;1151;65124;-84
2020/12/26 05:21:45;;;;;;;11.17;10.00;;;;;;;0.13;83.81;99269.80;118666;1151;65120;-85
2020/12/26 05:24:13;;;;;;;11.60;8.90;;;;;;;0.14;84.20;99268.89;118700;1151;65124;-84
2020/12/26 05:26:47;;;;;;;14.50;11.67;;;;;;;0.13;83.69;99269.80;118680;1151;65236;-85
2020/12/26 05:29:16;;;;;;;13.90;10.30;;;;;;;0.10;84.42;99275.07;119037;1151;65219;-85
2020/12/26 05:31:57;;;;;;;14.47;11.30;;;;;;;0.09;84.05;99275.98;119160;1151;65146;-84
2020/12/26 05:34:33;;;;;;;16.87;11.67;;;;;;;0.09;84.19;99277.74;119124;1151;65127;-84
2020/12/26 05:37:03;;;;;;;13.43;11.43;;;;;;;0.12;83.85;99275.91;118841;1151;65151;-83
2020/12/26 05:39:36;;;;;;;17.50;12.95;;;;;;;0.14;83.65;99275.89;118729;1151;65185;-84
2020/12/26 05:42:04;;;;;;;17.53;14.03;;;;;;;0.15;83.78;99280.23;119138;1151;65127;-84
2020/12/26 05:44:33;;;;;;;16.55;12.50;;;;;;;0.13;84.12;99276.77;119080;1151;65082;-85
2020/12/26 05:47:03;;;;;;;18.53;13.50;;;;;;;0.12;84.01;99278.53;119013;1151;65233;-83
2020/12/26 05:49:32;;;;;;;15.00;13.00;;;;;;;0.13;84.45;99289.88;119049;1151;65231;-84
2020/12/26 05:52:10;;;;;;;16.00;12.85;;;;;;;0.11;84.47;99289.92;118506;1151;65398;-84
2020/12/26 05:54:37;;;;;;;17.03;14.10;;;;;;;0.08;83.95;99292.61;118891;1151;65124;-84
2020/12/26 05:57:11;;;;;;;18.77;14.63;;;;;;;0.06;83.94;99286.52;119047;1151;65558;-84
2020/12/26 05:59:39;;;;;;;15.30;11.90;;;;;;;0.04;84.69;99292.69;119041;1151;65147;-84
2020/12/26 06:02:19;;;;;;;16.40;14.25;;;;;;;0.03;84.01;99293.56;119095;1151;65147;-82
2020/12/26 06:04:46;;;;;;;;;;;;;;;0.04;84.27;99290.07;119062;1151;65075;-83
2020/12/26 06:07:12;;;;;;;15.97;11.97;;;;;;;0.04;84.55;99301.41;119096;1151;65066;-83
2020/12/26 06:09:40;;;;;;;15.47;11.57;;;;;;;0.04;84.62;99295.31;119018;1151;65637;-83
2020/12/26 06:12:15;;;;;;;14.40;11.47;;;;;;;0.04;84.40;99300.55;119114;1151;65072;-83
2020/12/26 06:14:42;;;;;;;19.27;12.90;;;;;;;0.04;84.60;99306.65;119017;1151;65217;-83
2020/12/26 06:17:09;;;;;;;14.43;10.07;;;;;;;0.04;84.24;99309.27;119179;1150;65278;-83
2020/12/26 06:19:36;;;;;;;14.17;10.23;;;;;;;0.05;84.34;99317.98;118819;1151;65191;-83
2020/12/26 06:22:03;;;;;;;13.97;10.70;;;;;;;0.05;84.19;99318.84;119078;1151;65035;-83
2020/12/26 06:24:29;;;;;;;13.13;10.27;;;;;;;0.04;84.16;99318.89;119069;1151;65053;-83
2020/12/26 06:27:01;;;;;;;13.77;9.80;;;;;;;0.04;84.42;99322.37;119099;1150;65213;-82
2020/12/26 06:29:31;;;;;;;11.45;9.30;;;;;;;0.07;84.14;99324.92;119083;1151;65462;-83
2020/12/26 06:31:59;;;;;;;;;;;;;;;0.08;83.81;99320.54;119132;1151;65124;-83
2020/12/26 06:34:26;;;;;;;11.80;9.13;;;;;;;0.09;84.30;99332.77;119087;1151;65062;-83
2020/12/26 06:36:56;;;;;;;12.87;9.17;;;;;;;0.09;84.01;99338.01;119091;1150;65098;-84
2020/12/26 06:39:33;;;;;;;12.10;8.47;;;;;;;0.09;84.22;99349.34;119074;1151;65143;-85
2020/12/26 06:42:15;;;;;;;10.40;8.17;;;;;;;0.10;84.03;99351.06;118602;1151;65164;-83
2020/12/26 06:44:43;;;;;;;13.10;8.35;;;;;;;0.11;84.28;99351.95;118849;1151;65127;-85
2020/12/26 06:47:34;;;;;;;12.70;8.70;;;;;;;0.13;84.29;99355.38;119055;1151;65149;-81
2020/12/26 06:50:22;;;;;;;13.03;9.30;;;;;;;0.14;83.61;99360.61;118680;1151;65127;-83
2020/12/26 06:52:49;;;;;;;13.77;10.33;;;;;;;0.16;84.09;99371.08;119019;1150;65207;-84
2020/12/26 06:55:42;;;;;;;13.70;9.50;;;;;;;0.17;84.29;99367.55;119041;1151;65131;-84
2020/12/26 06:58:23;;;;;;;12.80;9.07;;;;;;;0.21;83.91;99375.34;119110;1150;65610;-84
2020/12/26 07:00:51;;;;;;;10.73;9.20;;;;;;;0.24;83.84;99377.04;119021;1151;65150;-85
2020/12/26 07:03:22;;;;;;;10.00;8.10;;;;;;;0.28;83.63;99370.83;119149;1151;65127;-84
2020/12/26 07:05:50;;;;;;;10.93;9.03;;;;;;;0.32;83.87;99374.27;119114;1151;65276;-83
2020/12/26 07:08:20;;;;;;;13.30;9.30;;;;;;;0.37;83.27;99373.28;119080;1150;65168;-84
2020/12/26 07:10:46;;;;;;;12.05;7.85;;;;;;;0.39;83.02;99375.86;119076;1151;65143;-82
2020/12/26 07:13:46;;;;;;;13.70;8.67;;;;;;;0.42;82.90;99363.58;119097;1151;65083;-82
2020/12/26 07:16:35;;;;;;;11.87;8.13;;;;;;;0.51;82.91;99370.38;119059;1151;65105;-83
2020/12/26 07:19:23;;;;;;;13.53;8.97;;;;;;;0.59;82.89;99367.61;119075;1151;65091;-83
2020/12/26 07:21:52;;;;;;;10.47;7.57;;;;;;;0.64;82.29;99371.86;119122;1151;65281;-84
2020/12/26 07:24:24;;;;;;;12.73;7.13;;;;;;;0.64;82.30;99371.86;119005;1151;65514;-83
2020/12/26 07:26:51;;;;;;;10.05;6.60;;;;;;;0.65;82.35;99377.95;119108;1151;65137;-83
2020/12/26 07:29:26;;;;;;;10.43;8.47;;;;;;;0.67;82.32;99381.42;119088;1151;65114;-83
2020/12/26 07:31:54;;;;;;;13.43;9.07;;;;;;;0.68;81.74;99382.28;119097;1151;65114;-83
2020/12/26 07:34:43;;;;;;;15.33;10.27;;;;;;;0.68;81.21;99387.52;119059;1151;65214;-83
2020/12/26 07:37:09;;;;;;;14.50;9.73;;;;;;;0.66;81.92;99390.20;119168;1150;65150;-84
2020/12/26 07:39:45;;;;;;;15.40;9.57;;;;;;;0.67;81.85;99378.80;119042;1151;65133;-83
2020/12/26 07:42:16;;;;;;;17.50;11.13;;;;;;;0.68;81.76;99393.63;118972;1151;65128;-83
2020/12/26 07:44:43;;;;;;;18.97;12.43;;;;;;;0.73;82.32;99390.92;118633;1151;65226;-83
2020/12/26 07:47:11;;;;;;;20.45;13.15;;;;;;;0.72;82.02;99390.06;119099;1151;65163;-84
2020/12/26 07:49:38;;;;;;;22.77;13.53;;;;;;;0.71;82.46;99404.09;119064;1151;65101;-83
2020/12/26 07:52:06;;;;;;;19.07;12.10;;;;;;;0.69;82.08;99394.52;119047;1151;65226;-83
2020/12/26 07:54:33;;;;;;;14.80;10.20;;;;;;;0.65;82.74;99398.94;119129;1151;65200;-83
2020/12/26 07:57:00;;;;;;;14.95;10.10;;;;;;;0.64;82.55;99402.47;119001;1151;65106;-82
2020/12/26 07:59:27;;;;;;;14.00;9.97;;;;;;;0.61;82.38;99397.30;119065;1151;65190;-83
2020/12/26 08:01:57;;;;;;;15.63;11.13;;;;;;;0.59;82.27;99404.32;119084;1151;65622;-83
2020/12/26 08:04:23;;;;;;;17.25;12.80;;;;;;;0.59;82.38;99404.32;119002;1151;65227;-85
2020/12/26 08:06:51;;;;;;;18.10;12.47;;;;;;;0.67;83.20;99406.80;119052;1151;65124;-83
2020/12/26 08:09:18;;;;;;;14.60;11.03;;;;;;;0.78;83.07;99410.91;119020;1151;65127;-83
2020/12/26 08:11:45;;;;;;;18.47;11.47;;;;;;;0.92;82.85;99415.86;119038;1151;65353;-82
2020/12/26 08:14:14;;;;;;;18.23;12.17;;;;;;;1.00;82.34;99410.45;119074;1151;65130;-83
2020/12/26 08:16:41;;;;;;;21.93;14.57;;;;;;;1.04;82.37;99412.13;119058;1151;65226;-83
2020/12/26 08:19:08;;;;;;;16.77;12.37;;;;;;;1.07;82.13;99419.94;119006;1151;65136;-84
2020/12/26 08:21:35;;;;;;;16.70;11.30;;;;;;;1.12;82.15;99418.08;118480;1151;65213;-85
2020/12/26 08:24:04;;;;;;;15.13;10.50;;;;;;;1.15;82.42;99425.88;118945;1151;65224;-84
2020/12/26 08:26:32;;;;;;;18.23;11.37;;;;;;;1.23;82.05;99434.45;118906;1151;65129;-83
2020/12/26 08:29:04;;;;;;;17.87;12.10;;;;;;;1.32;81.61;99443.91;119176;1151;65458;-82
2020/12/26 08:31:33;;;;;;;16.25;11.60;;;;;;;1.37;81.57;99435.90;119326;1151;65124;-85
2020/12/26 08:34:12;;;;;;;15.67;11.47;;;;;;;1.43;81.46;99444.52;119217;1151;65063;-84
2020/12/26 08:36:44;;;;;;;16.20;11.30;;;;;;;1.45;81.32;99442.73;119159;1151;65152;-85
2020/12/26 08:39:18;;;;;;;15.60;10.03;;;;;;;1.49;81.48;99441.74;119231;1151;65200;-83
2020/12/26 08:41:46;;;;;;;13.97;8.90;;;;;;;1.57;80.79;99454.70;119092;1151;65153;-85
2020/12/26 08:44:13;;;;;;;12.07;9.40;;;;;;;1.67;81.11;99447.48;118863;1151;65216;-85
2020/12/26 08:46:43;;;;;;;11.27;8.47;;;;;;;1.80;80.81;99461.20;119289;1151;65101;-85
2020/12/26 08:49:10;;;;;;;14.00;9.70;;;;;;;1.86;80.39;99458.41;119220;1151;65236;-85
2020/12/26 08:51:41;;;;;;;11.03;8.10;;;;;;;1.93;80.53;99466.11;119201;1151;65117;-86
2020/12/26 08:54:18;;;;;;;10.03;7.27;;;;;;;1.96;80.16;99470.43;119161;1151;65133;-82
2020/12/26 08:56:45;;;;;;;10.07;7.67;;;;;;;1.97;80.26;99470.41;119090;1151;65153;-86
2020/12/26 08:59:13;;;;;;;10.30;8.87;;;;;;;1.96;80.03;99473.92;119125;1151;65044;-83
2020/12/26 09:01:40;;;;;;;12.85;9.45;;;;;;;1.93;80.34;99468.73;119376;1151;65040;-83
2020/12/26 09:04:16;;;;;;;12.77;9.20;;;;;;;1.92;80.53;99474.02;119268;1151;65089;-83
2020/12/26 09:06:42;;;;;;;13.15;8.15;;;;;;;1.90;80.45;99473.22;119103;1151;65120;-85
2020/12/26 09:09:18;;;;;;;10.53;7.77;;;;;;;1.86;80.26;99477.66;119165;1151;65067;-87
2020/12/26 09:11:46;;;;;;;10.37;7.70;;;;;;;1.80;79.17;99479.59;120083;1151;65573;-90
2020/12/26 09:14:20;;;;;;;10.53;8.57;;;;;;;1.68;80.25;99478.95;118807;1151;65155;-78
2020/12/26 09:16:56;;;;;;;9.33;7.30;;;;;;;1.59;80.15;99480.95;119041;1151;65098;-81
2020/12/26 09:19:23;;;;;;;9.73;6.70;;;;;;;1.52;78.67;99482.83;119122;1151;65107;-79
2020/12/26 09:21:49;;;;;;;8.70;6.30;;;;;;;1.49;78.85;99482.91;119120;1151;65164;-80
2020/12/26 09:24:21;;;;;;;10.93;8.40;;;;;;;1.44;79.52;99487.39;119179;1151;65127;-80
2020/12/26 09:26:48;;;;;;;10.77;9.07;;;;;;;1.45;79.76;99483.86;119111;1151;65169;-80
2020/12/26 09:29:22;;;;;;;10.17;8.70;;;;;;;1.45;78.92;99481.23;119055;1151;65223;-80
2020/12/26 09:31:50;;;;;;;9.83;6.50;;;;;;;1.44;79.16;99479.52;119072;1151;65149;-81
2020/12/26 09:34:20;;;;;;;10.17;6.10;;;;;;;1.40;78.41;99475.25;118568;1151;65134;-80
2020/12/26 09:36:48;;;;;;;10.93;6.13;;;;;;;1.40;78.93;99476.11;118555;1151;65207;-80
2020/12/26 09:39:15;;;;;;;7.80;5.70;;;;;;;1.38;77.74;99477.03;119226;1151;65552;-80
2020/12/26 09:41:43;;;;;;;8.60;6.13;;;;;;;1.36;78.88;99469.17;119148;1151;65178;-80
2020/12/26 09:44:10;;;;;;;7.83;5.00;;;;;;;1.37;77.66;99476.18;119088;1151;65174;-80
2020/12/26 09:46:36;;;;;;;6.27;5.50;;;;;;;1.38;78.55;99483.14;118605;1151;65108;-81
2020/12/26 09:49:03;;;;;;;8.40;6.27;;;;;;;1.43;77.63;99483.05;118854;1151;65201;-81
2020/12/26 09:51:30;;;;;;;9.77;6.07;;;;;;;1.47;77.98;99485.55;118906;1151;65038;-80
2020/12/26 09:53:56;;;;;;;9.65;5.70;;;;;;;1.53;77.56;99490.69;118980;1151;65124;-79
2020/12/26 09:56:22;;;;;;;11.13;5.83;;;;;;;1.56;77.27;99492.39;118981;1151;65207;-81
2020/12/26 09:58:49;;;;;;;8.83;6.00;;;;;;;1.63;78.03;99495.72;118995;1151;65226;-81
2020/12/26 10:01:18;;;;;;;8.47;5.30;;;;;;;1.67;77.67;99485.12;119018;1151;65116;-81
2020/12/26 10:03:46;;;;;;;7.43;4.90;;;;;;;1.70;76.92;99484.19;118986;1151;65182;-81
2020/12/26 10:06:17;;;;;;;8.77;6.03;;;;;;;1.69;77.03;99478.08;118984;1151;65101;-80
2020/12/26 10:08:45;;;;;;;9.80;5.50;;;;;;;1.66;76.65;99475.52;119041;1151;65089;-80
2020/12/26 10:11:12;;;;;;;9.37;5.53;;;;;;;1.64;76.91;99476.45;119108;1151;65097;-80
2020/12/26 10:13:40;;;;;;;9.75;5.20;;;;;;;1.67;76.51;99473.75;119060;1151;65098;-80
2020/12/26 10:16:06;;;;;;;9.17;5.57;;;;;;;1.70;75.99;99478.93;118961;1151;65227;-81
2020/12/26 10:18:33;;;;;;;12.27;6.37;;;;;;;1.67;75.88;99477.23;119027;1151;65051;-80
2020/12/26 10:21:00;;;;;;;11.17;6.23;;;;;;;1.64;75.03;99473.83;118991;1151;65202;-80
2020/12/26 10:23:27;;;;;;;9.30;6.80;;;;;;;1.58;75.15;99481.83;119051;1151;65038;-80
2020/12/26 10:25:54;;;;;;;13.65;7.80;;;;;;;1.56;75.82;99474.00;118998;1151;65113;-80
2020/12/26 10:28:21;;;;;;;12.80;8.00;;;;;;;1.58;76.36;99485.34;119061;1151;65172;-80
2020/12/26 10:30:48;;;;;;;13.73;8.43;;;;;;;1.59;75.73;99473.92;119092;1151;65097;-79
2020/12/26 10:33:15;;;;;;;13.05;7.70;;;;;;;1.60;75.86;99475.64;118877;1151;65130;-80
2020/12/26 10:35:42;;;;;;;13.70;8.00;;;;;;;1.64;75.57;99481.71;118510;1151;65168;-80
2020/12/26 10:38:08;;;;;;;12.50;7.07;;;;;;;1.64;75.16;99473.83;118482;1151;65037;-79
2020/12/26 10:40:35;;;;;;;15.00;8.75;;;;;;;1.66;75.83;99479.88;118460;1151;65260;-79
2020/12/26 10:43:02;;;;;;;16.37;8.53;;;;;;;1.69;76.00;99480.70;118663;1151;65219;-81
2020/12/26 10:45:29;;;;;;;11.87;7.40;;;;;;;1.72;74.81;99479.77;118671;1151;65128;-80
2020/12/26 10:47:55;;;;;;;11.37;6.43;;;;;;;1.77;74.87;99479.66;119055;1151;65057;-79
2020/12/26 10:50:22;;;;;;;13.60;6.83;;;;;;;1.80;73.64;99480.45;118922;1151;65123;-79
2020/12/26 10:52:48;;;;;;;12.43;7.13;;;;;;;1.84;75.10;99475.97;119030;1151;65567;-80
2020/12/26 10:55:15;;;;;;;13.20;7.53;;;;;;;1.87;74.12;99482.04;118785;1151;65146;-80
2020/12/26 10:57:45;;;;;;;11.20;7.00;;;;;;;1.86;74.45;99474.18;118393;1151;65133;-81
2020/12/26 11:00:12;;;;;;;13.93;6.57;;;;;;;1.86;74.46;99469.78;118737;1151;65095;-81
2020/12/26 11:02:39;;;;;;;10.60;6.50;;;;;;;1.90;74.20;99473.22;119055;1151;65130;-81
2020/12/26 11:05:06;;;;;;;11.33;6.23;;;;;;;1.95;74.40;99469.58;119082;1151;65192;-80
2020/12/26 11:07:33;;;;;;;14.53;7.17;;;;;;;2.02;74.37;99480.78;119030;1151;65115;-79
2020/12/26 11:10:00;;;;;;;11.77;7.43;;;;;;;2.03;73.10;99471.12;119025;1151;65156;-81
2020/12/26 11:12:27;;;;;;;19.63;9.33;;;;;;;2.02;73.98;99483.41;119057;1151;65576;-80
2020/12/26 11:14:54;;;;;;;12.13;6.87;;;;;;;2.04;72.94;99478.98;119204;1151;65127;-81
2020/12/26 11:17:20;;;;;;;11.93;7.50;;;;;;;2.04;73.38;99486.88;119039;1151;65156;-80
2020/12/26 11:19:46;;;;;;;11.50;7.00;;;;;;;2.07;73.21;99480.68;119051;1151;65175;-79
2020/12/26 11:22:13;;;;;;;8.97;6.27;;;;;;;2.09;73.21;99478.88;119005;1150;65132;-79
2020/12/26 11:24:39;;;;;;;15.60;6.67;;;;;;;2.12;72.56;99479.66;119041;1151;65098;-80
2020/12/26 11:27:06;;;;;;;10.33;6.20;;;;;;;2.15;73.49;99478.72;119026;1151;65156;-80